sensor_id;sensor_type;location;lat;lon;timestamp;pressure;altitude;pressure_sealevel;temperature;humidity
78016;BME280;67223;51.102;5.882;2023-07-31T00:02:23;101144.22;;;16.88;100.00
78016;BME280;67223;51.102;5.882;2023-07-31T00:04:49;101142.31;;;17.06;100.00
78016;BME280;67223;51.102;5.882;2023-07-31T00:07:14;101143.66;;;16.84;100.00
78016;BME280;67223;51.102;5.882;2023-07-31T00:09:40;101135.94;;;16.89;100.00
78016;BME280;67223;51.102;5.882;2023-07-31T00:12:06;101139.63;;;17.40;100.00
78016;BME280;67223;51.102;5.882;2023-07-31T00:14:31;101127.75;;;16.99;100.00
78016;BME280;67223;51.102;5.882;2023-07-31T00:16:57;101130.56;;;16.89;100.00
78016;BME280;67223;51.102;5.882;2023-07-31T00:19:22;101130.03;;;16.86;100.00
78016;BME280;67223;51.102;5.882;2023-07-31T00:21:47;101135.38;;;16.77;100.00
78016;BME280;67223;51.102;5.882;2023-07-31T00:24:13;101123.75;;;16.77;100.00
78016;BME280;67223;51.102;5.882;2023-07-31T00:26:38;101123.16;;;16.91;100.00
78016;BME280;67223;51.102;5.882;2023-07-31T00:29:04;101115.88;;;16.84;100.00
78016;BME280;67223;51.102;5.882;2023-07-31T00:31:29;101123.41;;;16.80;100.00
78016;BME280;67223;51.102;5.882;2023-07-31T00:33:55;101121.66;;;16.71;100.00
78016;BME280;67223;51.102;5.882;2023-07-31T00:36:20;101120.44;;;16.83;100.00
78016;BME280;67223;51.102;5.882;2023-07-31T00:38:46;101119.03;;;16.79;100.00
78016;BME280;67223;51.102;5.882;2023-07-31T00:41:12;101120.09;;;17.12;100.00
78016;BME280;67223;51.102;5.882;2023-07-31T00:43:37;101116.19;;;16.81;100.00
78016;BME280;67223;51.102;5.882;2023-07-31T00:46:02;101114.47;;;16.79;100.00
78016;BME280;67223;51.102;5.882;2023-07-31T00:48:28;101111.31;;;17.10;100.00
78016;BME280;67223;51.102;5.882;2023-07-31T00:50:53;101109.63;;;16.83;100.00
78016;BME280;67223;51.102;5.882;2023-07-31T00:53:19;101098.81;;;17.09;100.00
78016;BME280;67223;51.102;5.882;2023-07-31T00:55:45;101111.97;;;16.78;100.00
78016;BME280;67223;51.102;5.882;2023-07-31T00:58:10;101110.69;;;16.90;100.00
78016;BME280;67223;51.102;5.882;2023-07-31T01:00:36;101100.94;;;16.97;100.00
78016;BME280;67223;51.102;5.882;2023-07-31T01:03:01;101100.22;;;16.87;100.00
78016;BME280;67223;51.102;5.882;2023-07-31T01:08:54;101097.50;;;16.61;100.00
78016;BME280;67223;51.102;5.882;2023-07-31T01:11:27;101101.56;;;16.65;100.00
78016;BME280;67223;51.102;5.882;2023-07-31T01:13:57;101100.81;;;16.73;100.00
78016;BME280;67223;51.102;5.882;2023-07-31T01:16:25;101102.59;;;16.90;100.00
78016;BME280;67223;51.102;5.882;2023-07-31T01:18:50;101095.22;;;16.74;100.00
78016;BME280;67223;51.102;5.882;2023-07-31T01:26:38;101098.03;;;16.65;100.00
78016;BME280;67223;51.102;5.882;2023-07-31T01:29:12;101095.03;;;16.68;100.00
78016;BME280;67223;51.102;5.882;2023-07-31T01:31:41;101093.84;;;16.70;100.00
78016;BME280;67223;51.102;5.882;2023-07-31T01:34:09;101090.00;;;16.73;100.00
78016;BME280;67223;51.102;5.882;2023-07-31T01:36:35;101094.38;;;16.74;100.00
78016;BME280;67223;51.102;5.882;2023-07-31T01:39:01;101100.81;;;16.73;100.00
78016;BME280;67223;51.102;5.882;2023-07-31T01:41:27;101096.44;;;16.80;100.00
78016;BME280;67223;51.102;5.882;2023-07-31T01:43:53;101092.47;;;17.18;100.00
78016;BME280;67223;51.102;5.882;2023-07-31T01:46:19;101095.69;;;16.70;100.00
78016;BME280;67223;51.102;5.882;2023-07-31T01:48:44;101087.34;;;16.81;100.00
78016;BME280;67223;51.102;5.882;2023-07-31T01:51:09;101076.19;;;16.76;100.00
78016;BME280;67223;51.102;5.882;2023-07-31T01:53:35;101080.75;;;16.75;100.00
78016;BME280;67223;51.102;5.882;2023-07-31T01:56:00;101078.19;;;16.74;100.00
78016;BME280;67223;51.102;5.882;2023-07-31T01:58:26;101078.91;;;16.76;100.00
78016;BME280;67223;51.102;5.882;2023-07-31T02:00:51;101076.69;;;16.71;100.00
78016;BME280;67223;51.102;5.882;2023-07-31T02:03:17;101079.25;;;16.81;100.00
78016;BME280;67223;51.102;5.882;2023-07-31T02:05:46;101076.13;;;16.94;100.00
78016;BME280;67223;51.102;5.882;2023-07-31T02:08:12;101072.53;;;16.85;100.00
78016;BME280;67223;51.102;5.882;2023-07-31T02:10:38;101077.56;;;16.80;100.00
78016;BME280;67223;51.102;5.882;2023-07-31T02:13:03;101070.94;;;16.74;100.00
78016;BME280;67223;51.102;5.882;2023-07-31T02:15:29;101070.28;;;16.98;100.00
78016;BME280;67223;51.102;5.882;2023-07-31T02:17:55;101068.16;;;16.84;100.00
78016;BME280;67223;51.102;5.882;2023-07-31T02:20:20;101062.56;;;16.77;100.00
78016;BME280;67223;51.102;5.882;2023-07-31T02:22:46;101056.34;;;16.85;100.00
78016;BME280;67223;51.102;5.882;2023-07-31T02:25:11;101052.19;;;16.91;100.00
78016;BME280;67223;51.102;5.882;2023-07-31T02:27:36;101056.72;;;16.90;100.00
78016;BME280;67223;51.102;5.882;2023-07-31T02:30:02;101043.72;;;16.86;100.00
78016;BME280;67223;51.102;5.882;2023-07-31T02:32:28;101045.91;;;16.82;100.00
78016;BME280;67223;51.102;5.882;2023-07-31T02:34:53;101044.59;;;16.94;100.00
78016;BME280;67223;51.102;5.882;2023-07-31T02:37:18;101040.88;;;16.87;100.00
78016;BME280;67223;51.102;5.882;2023-07-31T02:39:44;101039.56;;;16.99;100.00
78016;BME280;67223;51.102;5.882;2023-07-31T02:42:09;101037.72;;;17.00;100.00
78016;BME280;67223;51.102;5.882;2023-07-31T02:44:35;101036.72;;;17.01;100.00
78016;BME280;67223;51.102;5.882;2023-07-31T02:47:00;101031.88;;;17.12;100.00
78016;BME280;67223;51.102;5.882;2023-07-31T02:49:25;101030.81;;;16.97;100.00
78016;BME280;67223;51.102;5.882;2023-07-31T02:51:51;101039.25;;;17.02;100.00
78016;BME280;67223;51.102;5.882;2023-07-31T02:54:16;101030.09;;;16.95;100.00
78016;BME280;67223;51.102;5.882;2023-07-31T02:56:42;101029.69;;;17.08;100.00
78016;BME280;67223;51.102;5.882;2023-07-31T02:59:07;101023.38;;;16.99;100.00
78016;BME280;67223;51.102;5.882;2023-07-31T03:01:33;101019.47;;;16.94;100.00
78016;BME280;67223;51.102;5.882;2023-07-31T03:03:58;101024.41;;;16.98;100.00
78016;BME280;67223;51.102;5.882;2023-07-31T03:06:24;101022.72;;;17.05;100.00
78016;BME280;67223;51.102;5.882;2023-07-31T03:08:49;101012.91;;;16.96;100.00
78016;BME280;67223;51.102;5.882;2023-07-31T03:11:14;101017.97;;;16.99;100.00
78016;BME280;67223;51.102;5.882;2023-07-31T03:13:40;101015.69;;;17.12;100.00
78016;BME280;67223;51.102;5.882;2023-07-31T03:16:05;101008.97;;;17.25;100.00
78016;BME280;67223;51.102;5.882;2023-07-31T03:18:31;101012.28;;;17.02;100.00
78016;BME280;67223;51.102;5.882;2023-07-31T03:20:56;101005.03;;;17.03;100.00
78016;BME280;67223;51.102;5.882;2023-07-31T03:23:22;101012.78;;;16.98;100.00
78016;BME280;67223;51.102;5.882;2023-07-31T03:25:57;101009.25;;;17.05;100.00
78016;BME280;67223;51.102;5.882;2023-07-31T03:28:23;101009.59;;;17.02;100.00
78016;BME280;67223;51.102;5.882;2023-07-31T03:30:49;101011.63;;;17.08;100.00
78016;BME280;67223;51.102;5.882;2023-07-31T03:33:14;101005.03;;;17.03;100.00
78016;BME280;67223;51.102;5.882;2023-07-31T03:35:40;101012.56;;;16.91;100.00
78016;BME280;67223;51.102;5.882;2023-07-31T03:38:05;101005.97;;;16.94;100.00
78016;BME280;67223;51.102;5.882;2023-07-31T03:40:30;101004.69;;;16.98;100.00
78016;BME280;67223;51.102;5.882;2023-07-31T03:42:56;101011.75;;;16.99;100.00
78016;BME280;67223;51.102;5.882;2023-07-31T03:45:21;100993.69;;;16.99;100.00
78016;BME280;67223;51.102;5.882;2023-07-31T03:47:47;100992.06;;;17.06;100.00
78016;BME280;67223;51.102;5.882;2023-07-31T03:50:12;100986.09;;;16.95;100.00
78016;BME280;67223;51.102;5.882;2023-07-31T03:52:38;100985.59;;;16.91;100.00
78016;BME280;67223;51.102;5.882;2023-07-31T03:55:03;100985.44;;;16.93;100.00
78016;BME280;67223;51.102;5.882;2023-07-31T03:57:29;100980.81;;;16.85;100.00
78016;BME280;67223;51.102;5.882;2023-07-31T03:59:54;100978.63;;;16.81;100.00
78016;BME280;67223;51.102;5.882;2023-07-31T04:04:55;100987.78;;;16.88;100.00
78016;BME280;67223;51.102;5.882;2023-07-31T04:07:20;100981.34;;;16.89;100.00
78016;BME280;67223;51.102;5.882;2023-07-31T04:09:46;100984.03;;;16.89;100.00
78016;BME280;67223;51.102;5.882;2023-07-31T04:12:11;100982.53;;;16.86;100.00
78016;BME280;67223;51.102;5.882;2023-07-31T04:14:37;100974.94;;;16.90;100.00
78016;BME280;67223;51.102;5.882;2023-07-31T04:17:02;100974.94;;;16.90;100.00
78016;BME280;67223;51.102;5.882;2023-07-31T04:19:28;100972.44;;;16.88;100.00
78016;BME280;67223;51.102;5.882;2023-07-31T04:21:53;100968.03;;;16.87;100.00
78016;BME280;67223;51.102;5.882;2023-07-31T04:24:19;100965.00;;;16.90;100.00
78016;BME280;67223;51.102;5.882;2023-07-31T04:26:50;100948.66;;;16.92;100.00
78016;BME280;67223;51.102;5.882;2023-07-31T04:29:15;100943.41;;;16.90;100.00
78016;BME280;67223;51.102;5.882;2023-07-31T04:31:41;100945.28;;;16.90;100.00
78016;BME280;67223;51.102;5.882;2023-07-31T04:34:07;100949.25;;;17.19;100.00
78016;BME280;67223;51.102;5.882;2023-07-31T04:36:33;100953.94;;;17.09;100.00
78016;BME280;67223;51.102;5.882;2023-07-31T04:38:59;100955.63;;;17.02;100.00
78016;BME280;67223;51.102;5.882;2023-07-31T04:41:24;100964.25;;;17.14;100.00
78016;BME280;67223;51.102;5.882;2023-07-31T04:43:50;100957.00;;;17.14;100.00
78016;BME280;67223;51.102;5.882;2023-07-31T04:46:15;100940.94;;;17.05;100.00
78016;BME280;67223;51.102;5.882;2023-07-31T04:48:41;100948.88;;;17.06;100.00
78016;BME280;67223;51.102;5.882;2023-07-31T04:51:06;100948.09;;;17.22;100.00
78016;BME280;67223;51.102;5.882;2023-07-31T04:53:35;100945.19;;;17.07;100.00
78016;BME280;67223;51.102;5.882;2023-07-31T04:56:07;100936.47;;;17.38;100.00
78016;BME280;67223;51.102;5.882;2023-07-31T04:58:32;100921.97;;;18.20;100.00
78016;BME280;67223;51.102;5.882;2023-07-31T05:00:58;100923.31;;;17.51;100.00
78016;BME280;67223;51.102;5.882;2023-07-31T05:03:24;100906.66;;;17.88;100.00
78016;BME280;67223;51.102;5.882;2023-07-31T05:05:52;100904.44;;;17.99;100.00
78016;BME280;67223;51.102;5.882;2023-07-31T05:08:25;100907.00;;;17.77;100.00
78016;BME280;67223;51.102;5.882;2023-07-31T05:11:05;100902.78;;;17.66;100.00
78016;BME280;67223;51.102;5.882;2023-07-31T05:13:30;100893.50;;;17.77;100.00
78016;BME280;67223;51.102;5.882;2023-07-31T05:15:56;100907.09;;;17.27;100.00
78016;BME280;67223;51.102;5.882;2023-07-31T05:18:21;100902.09;;;17.80;100.00
78016;BME280;67223;51.102;5.882;2023-07-31T05:20:47;100907.50;;;17.96;100.00
78016;BME280;67223;51.102;5.882;2023-07-31T05:23:13;100904.44;;;17.91;100.00
78016;BME280;67223;51.102;5.882;2023-07-31T05:25:49;100905.41;;;18.15;100.00
78016;BME280;67223;51.102;5.882;2023-07-31T05:28:21;100905.41;;;18.23;100.00
78016;BME280;67223;51.102;5.882;2023-07-31T05:30:58;100905.06;;;18.81;100.00
78016;BME280;67223;51.102;5.882;2023-07-31T05:33:27;100893.50;;;17.77;100.00
78016;BME280;67223;51.102;5.882;2023-07-31T05:35:57;100900.69;;;18.17;100.00
78016;BME280;67223;51.102;5.882;2023-07-31T05:38:23;100902.06;;;18.04;100.00
78016;BME280;67223;51.102;5.882;2023-07-31T05:40:49;100903.44;;;17.60;100.00
78016;BME280;67223;51.102;5.882;2023-07-31T05:43:15;100910.16;;;17.32;100.00
78016;BME280;67223;51.102;5.882;2023-07-31T05:45:42;100916.84;;;18.41;100.00
78016;BME280;67223;51.102;5.882;2023-07-31T05:48:07;100904.13;;;17.86;100.00
78016;BME280;67223;51.102;5.882;2023-07-31T05:50:33;100898.38;;;17.97;100.00
78016;BME280;67223;51.102;5.882;2023-07-31T05:52:58;100891.41;;;18.11;100.00
78016;BME280;67223;51.102;5.882;2023-07-31T05:55:24;100894.78;;;18.76;100.00
78016;BME280;67223;51.102;5.882;2023-07-31T05:57:52;100886.72;;;17.97;100.00
78016;BME280;67223;51.102;5.882;2023-07-31T06:00:18;100882.03;;;19.39;100.00
78016;BME280;67223;51.102;5.882;2023-07-31T06:02:44;100881.09;;;18.15;100.00
78016;BME280;67223;51.102;5.882;2023-07-31T06:05:09;100886.50;;;18.70;100.00
78016;BME280;67223;51.102;5.882;2023-07-31T06:07:39;100876.97;;;18.43;100.00
78016;BME280;67223;51.102;5.882;2023-07-31T06:10:05;100880.09;;;18.16;100.00
78016;BME280;67223;51.102;5.882;2023-07-31T06:12:32;100880.66;;;18.50;100.00
78016;BME280;67223;51.102;5.882;2023-07-31T06:14:58;100881.41;;;19.06;100.00
78016;BME280;67223;51.102;5.882;2023-07-31T06:17:24;100876.97;;;18.35;100.00
78016;BME280;67223;51.102;5.882;2023-07-31T06:19:54;100873.75;;;19.40;100.00
78016;BME280;67223;51.102;5.882;2023-07-31T06:22:20;100863.91;;;18.63;100.00
78016;BME280;67223;51.102;5.882;2023-07-31T06:24:46;100870.47;;;18.99;100.00
78016;BME280;67223;51.102;5.882;2023-07-31T06:27:12;100873.75;;;18.39;100.00
78016;BME280;67223;51.102;5.882;2023-07-31T06:29:37;100876.41;;;18.95;100.00
78016;BME280;67223;51.102;5.882;2023-07-31T06:32:03;100879.03;;;18.25;100.00
78016;BME280;67223;51.102;5.882;2023-07-31T06:34:29;100876.31;;;18.80;100.00
78016;BME280;67223;51.102;5.882;2023-07-31T06:36:56;100880.09;;;19.24;100.00
78016;BME280;67223;51.102;5.882;2023-07-31T06:39:21;100877.47;;;18.85;100.00
78016;BME280;67223;51.102;5.882;2023-07-31T06:41:47;100883.50;;;19.49;100.00
78016;BME280;67223;51.102;5.882;2023-07-31T06:44:13;100868.31;;;19.63;100.00
78016;BME280;67223;51.102;5.882;2023-07-31T06:46:39;100860.53;;;18.61;100.00
78016;BME280;67223;51.102;5.882;2023-07-31T06:49:04;100869.34;;;20.14;100.00
78016;BME280;67223;51.102;5.882;2023-07-31T06:51:30;100868.66;;;19.45;100.00
78016;BME280;67223;51.102;5.882;2023-07-31T06:53:57;100866.44;;;18.48;100.00
78016;BME280;67223;51.102;5.882;2023-07-31T06:56:23;100879.19;;;19.77;100.00
78016;BME280;67223;51.102;5.882;2023-07-31T06:58:48;100868.75;;;18.75;100.00
78016;BME280;67223;51.102;5.882;2023-07-31T07:01:14;100876.44;;;19.40;100.00
78016;BME280;67223;51.102;5.882;2023-07-31T07:03:40;100860.66;;;20.62;100.00
78016;BME280;67223;51.102;5.882;2023-07-31T07:06:05;100852.41;;;19.45;100.00
78016;BME280;67223;51.102;5.882;2023-07-31T07:08:31;100863.13;;;19.76;100.00
78016;BME280;67223;51.102;5.882;2023-07-31T07:10:57;100868.84;;;19.13;100.00
78016;BME280;67223;51.102;5.882;2023-07-31T07:13:25;100858.56;;;19.76;100.00
78016;BME280;67223;51.102;5.882;2023-07-31T07:15:51;100871.13;;;19.01;100.00
78016;BME280;67223;51.102;5.882;2023-07-31T07:18:17;100878.09;;;19.49;100.00
78016;BME280;67223;51.102;5.882;2023-07-31T07:20:50;100864.81;;;17.68;100.00
78016;BME280;67223;51.102;5.882;2023-07-31T07:23:16;100879.75;;;17.21;100.00
78016;BME280;67223;51.102;5.882;2023-07-31T07:25:43;100883.78;;;17.09;100.00
78016;BME280;67223;51.102;5.882;2023-07-31T07:28:09;100878.31;;;17.68;100.00
78016;BME280;67223;51.102;5.882;2023-07-31T07:30:35;100879.94;;;18.01;100.00
78016;BME280;67223;51.102;5.882;2023-07-31T07:33:00;100869.50;;;17.33;100.00
78016;BME280;67223;51.102;5.882;2023-07-31T07:35:26;100871.72;;;17.78;100.00
78016;BME280;67223;51.102;5.882;2023-07-31T07:37:51;100868.81;;;17.55;100.00
78016;BME280;67223;51.102;5.882;2023-07-31T07:40:19;100856.81;;;17.90;100.00
78016;BME280;67223;51.102;5.882;2023-07-31T07:42:45;100845.28;;;18.68;100.00
78016;BME280;67223;51.102;5.882;2023-07-31T07:45:10;100842.63;;;17.88;100.00
78016;BME280;67223;51.102;5.882;2023-07-31T07:47:36;100844.84;;;17.20;100.00
78016;BME280;67223;51.102;5.882;2023-07-31T07:50:01;100848.59;;;17.68;100.00
78016;BME280;67223;51.102;5.882;2023-07-31T07:52:27;100838.25;;;17.39;100.00
78016;BME280;67223;51.102;5.882;2023-07-31T07:54:53;100843.88;;;17.78;100.00
78016;BME280;67223;51.102;5.882;2023-07-31T07:57:18;100845.34;;;17.40;100.00
78016;BME280;67223;51.102;5.882;2023-07-31T07:59:45;100840.75;;;18.60;100.00
78016;BME280;67223;51.102;5.882;2023-07-31T08:02:10;100852.38;;;18.22;100.00
78016;BME280;67223;51.102;5.882;2023-07-31T08:04:36;100853.66;;;17.38;100.00
78016;BME280;67223;51.102;5.882;2023-07-31T08:07:01;100840.13;;;17.46;100.00
78016;BME280;67223;51.102;5.882;2023-07-31T08:09:27;100847.03;;;17.16;100.00
78016;BME280;67223;51.102;5.882;2023-07-31T08:11:53;100866.22;;;18.27;100.00
78016;BME280;67223;51.102;5.882;2023-07-31T08:14:18;100844.69;;;17.86;100.00
78016;BME280;67223;51.102;5.882;2023-07-31T08:16:44;100846.38;;;17.55;100.00
78016;BME280;67223;51.102;5.882;2023-07-31T08:19:09;100845.72;;;17.77;100.00
78016;BME280;67223;51.102;5.882;2023-07-31T08:21:34;100840.16;;;17.38;100.00
78016;BME280;67223;51.102;5.882;2023-07-31T08:24:00;100840.66;;;18.76;100.00
78016;BME280;67223;51.102;5.882;2023-07-31T08:26:26;100838.38;;;18.10;100.00
78016;BME280;67223;51.102;5.882;2023-07-31T08:28:51;100825.66;;;18.19;100.00
78016;BME280;67223;51.102;5.882;2023-07-31T08:31:17;100829.34;;;17.71;100.00
78016;BME280;67223;51.102;5.882;2023-07-31T08:33:43;100830.84;;;17.16;100.00
78016;BME280;67223;51.102;5.882;2023-07-31T08:36:09;100840.25;;;17.93;100.00
78016;BME280;67223;51.102;5.882;2023-07-31T08:38:34;100833.44;;;18.22;100.00
78016;BME280;67223;51.102;5.882;2023-07-31T08:40:59;100830.19;;;17.71;100.00
78016;BME280;67223;51.102;5.882;2023-07-31T08:43:26;100830.16;;;17.79;100.00
78016;BME280;67223;51.102;5.882;2023-07-31T08:45:52;100824.09;;;17.45;100.00
78016;BME280;67223;51.102;5.882;2023-07-31T08:48:20;100827.44;;;17.95;100.00
78016;BME280;67223;51.102;5.882;2023-07-31T08:50:46;100812.88;;;18.04;100.00
78016;BME280;67223;51.102;5.882;2023-07-31T08:53:11;100811.53;;;18.00;100.00
78016;BME280;67223;51.102;5.882;2023-07-31T08:55:38;100813.31;;;17.77;100.00
78016;BME280;67223;51.102;5.882;2023-07-31T08:58:04;100826.94;;;18.47;100.00
78016;BME280;67223;51.102;5.882;2023-07-31T09:00:33;100824.38;;;18.06;100.00
78016;BME280;67223;51.102;5.882;2023-07-31T09:03:03;100815.34;;;17.59;100.00
78016;BME280;67223;51.102;5.882;2023-07-31T09:05:32;100816.97;;;18.78;100.00
78016;BME280;67223;51.102;5.882;2023-07-31T09:07:57;100823.28;;;18.32;100.00
78016;BME280;67223;51.102;5.882;2023-07-31T09:10:23;100824.97;;;18.33;100.00
78016;BME280;67223;51.102;5.882;2023-07-31T09:12:51;100823.91;;;18.34;100.00
78016;BME280;67223;51.102;5.882;2023-07-31T09:15:17;100822.00;;;18.12;100.00
78016;BME280;67223;51.102;5.882;2023-07-31T09:17:42;100829.53;;;18.32;100.00
78016;BME280;67223;51.102;5.882;2023-07-31T09:20:19;100824.28;;;18.31;100.00
78016;BME280;67223;51.102;5.882;2023-07-31T09:22:46;100802.72;;;19.30;100.00
78016;BME280;67223;51.102;5.882;2023-07-31T09:27:59;100798.66;;;19.11;100.00
78016;BME280;67223;51.102;5.882;2023-07-31T09:30:25;100799.16;;;18.14;100.00
78016;BME280;67223;51.102;5.882;2023-07-31T09:33:01;100803.69;;;19.37;100.00
78016;BME280;67223;51.102;5.882;2023-07-31T09:35:31;100796.34;;;17.99;100.00
78016;BME280;67223;51.102;5.882;2023-07-31T09:38:32;100796.78;;;19.12;100.00
78016;BME280;67223;51.102;5.882;2023-07-31T09:40:50;100794.66;;;18.45;100.00
78016;BME280;67223;51.102;5.882;2023-07-31T09:43:20;100795.03;;;18.34;100.00
78016;BME280;67223;51.102;5.882;2023-07-31T09:45:46;100772.41;;;19.72;100.00
78016;BME280;67223;51.102;5.882;2023-07-31T09:50:39;100775.78;;;19.37;100.00
78016;BME280;67223;51.102;5.882;2023-07-31T09:53:08;100765.50;;;19.32;100.00
78016;BME280;67223;51.102;5.882;2023-07-31T09:55:34;100776.97;;;19.57;100.00
78016;BME280;67223;51.102;5.882;2023-07-31T09:58:04;100771.72;;;19.55;100.00
78016;BME280;67223;51.102;5.882;2023-07-31T10:00:30;100776.59;;;19.74;100.00
78016;BME280;67223;51.102;5.882;2023-07-31T10:02:59;100769.59;;;20.24;100.00
78016;BME280;67223;51.102;5.882;2023-07-31T10:05:30;100759.31;;;20.05;100.00
78016;BME280;67223;51.102;5.882;2023-07-31T10:07:57;100769.09;;;19.47;100.00
78016;BME280;67223;51.102;5.882;2023-07-31T10:10:22;100769.69;;;18.97;100.00
78016;BME280;67223;51.102;5.882;2023-07-31T10:12:49;100782.88;;;18.69;100.00
78016;BME280;67223;51.102;5.882;2023-07-31T10:15:15;100779.75;;;18.58;100.00
78016;BME280;67223;51.102;5.882;2023-07-31T10:17:41;100778.75;;;19.94;100.00
78016;BME280;67223;51.102;5.882;2023-07-31T10:20:07;100780.78;;;19.25;100.00
78016;BME280;67223;51.102;5.882;2023-07-31T10:22:34;100768.72;;;19.50;100.00
78016;BME280;67223;51.102;5.882;2023-07-31T10:25:00;100769.66;;;19.20;100.00
78016;BME280;67223;51.102;5.882;2023-07-31T10:27:26;100776.91;;;18.74;100.00
78016;BME280;67223;51.102;5.882;2023-07-31T10:29:53;100756.78;;;19.59;100.00
78016;BME280;67223;51.102;5.882;2023-07-31T10:32:20;100759.50;;;19.59;100.00
78016;BME280;67223;51.102;5.882;2023-07-31T10:34:46;100762.63;;;19.48;100.00
78016;BME280;67223;51.102;5.882;2023-07-31T10:40:18;100746.63;;;19.61;100.00
78016;BME280;67223;51.102;5.882;2023-07-31T10:42:50;100761.41;;;19.13;100.00
78016;BME280;67223;51.102;5.882;2023-07-31T10:45:34;100744.81;;;19.83;100.00
78016;BME280;67223;51.102;5.882;2023-07-31T10:48:14;100740.88;;;20.30;100.00
78016;BME280;67223;51.102;5.882;2023-07-31T10:50:52;100746.13;;;19.58;100.00
78016;BME280;67223;51.102;5.882;2023-07-31T10:53:32;100725.66;;;20.14;100.00
78016;BME280;67223;51.102;5.882;2023-07-31T10:56:05;100731.53;;;19.44;100.00
78016;BME280;67223;51.102;5.882;2023-07-31T10:58:31;100745.50;;;19.85;100.00
78016;BME280;67223;51.102;5.882;2023-07-31T11:01:02;100743.97;;;20.27;100.00
78016;BME280;67223;51.102;5.882;2023-07-31T11:03:43;100741.00;;;20.36;100.00
78016;BME280;67223;51.102;5.882;2023-07-31T11:06:08;100729.06;;;19.87;100.00
78016;BME280;67223;51.102;5.882;2023-07-31T11:08:36;100718.53;;;21.06;100.00
78016;BME280;67223;51.102;5.882;2023-07-31T11:11:08;100712.34;;;20.91;100.00
78016;BME280;67223;51.102;5.882;2023-07-31T11:16:05;100715.38;;;21.52;100.00
78016;BME280;67223;51.102;5.882;2023-07-31T11:18:31;100727.88;;;20.40;100.00
78016;BME280;67223;51.102;5.882;2023-07-31T11:20:56;100741.00;;;20.07;100.00
78016;BME280;67223;51.102;5.882;2023-07-31T11:23:22;100734.81;;;20.63;100.00
78016;BME280;67223;51.102;5.882;2023-07-31T11:25:48;100734.16;;;21.04;100.00
78016;BME280;67223;51.102;5.882;2023-07-31T11:28:15;100736.19;;;20.38;100.00
78016;BME280;67223;51.102;5.882;2023-07-31T11:30:42;100739.69;;;19.88;100.00
78016;BME280;67223;51.102;5.882;2023-07-31T11:33:09;100746.78;;;19.60;100.00
78016;BME280;67223;51.102;5.882;2023-07-31T11:35:40;100751.09;;;19.98;100.00
78016;BME280;67223;51.102;5.882;2023-07-31T11:38:07;100751.81;;;19.63;100.00
78016;BME280;67223;51.102;5.882;2023-07-31T11:40:41;100747.91;;;20.09;100.00
78016;BME280;67223;51.102;5.882;2023-07-31T11:43:07;100738.72;;;20.40;100.00
78016;BME280;67223;51.102;5.882;2023-07-31T11:45:33;100748.31;;;19.62;100.00
78016;BME280;67223;51.102;5.882;2023-07-31T11:48:00;100748.47;;;19.61;100.00
78016;BME280;67223;51.102;5.882;2023-07-31T11:50:26;100759.13;;;19.62;100.00
78016;BME280;67223;51.102;5.882;2023-07-31T11:53:00;100741.63;;;20.09;100.00
78016;BME280;67223;51.102;5.882;2023-07-31T11:55:29;100734.72;;;21.14;100.00
78016;BME280;67223;51.102;5.882;2023-07-31T11:57:57;100724.22;;;20.90;100.00
78016;BME280;67223;51.102;5.882;2023-07-31T12:00:24;100737.06;;;19.95;100.00
78016;BME280;67223;51.102;5.882;2023-07-31T12:02:50;100726.09;;;20.17;100.00
78016;BME280;67223;51.102;5.882;2023-07-31T12:05:16;100727.94;;;19.66;100.00
78016;BME280;67223;51.102;5.882;2023-07-31T12:07:50;100741.47;;;19.81;100.00
78016;BME280;67223;51.102;5.882;2023-07-31T12:10:32;100721.06;;;20.14;100.00
78016;BME280;67223;51.102;5.882;2023-07-31T12:13:07;100713.59;;;20.16;100.00
78016;BME280;67223;51.102;5.882;2023-07-31T12:15:36;100720.75;;;20.24;100.00
78016;BME280;67223;51.102;5.882;2023-07-31T12:18:07;100715.88;;;20.49;100.00
78016;BME280;67223;51.102;5.882;2023-07-31T12:20:33;100714.25;;;20.54;100.00
78016;BME280;67223;51.102;5.882;2023-07-31T12:22:59;100702.00;;;21.01;100.00
78016;BME280;67223;51.102;5.882;2023-07-31T12:25:29;100723.38;;;20.17;100.00
78016;BME280;67223;51.102;5.882;2023-07-31T12:27:56;100726.19;;;20.24;100.00
78016;BME280;67223;51.102;5.882;2023-07-31T12:30:29;100713.16;;;20.49;100.00
78016;BME280;67223;51.102;5.882;2023-07-31T12:32:54;100709.59;;;19.98;100.00
78016;BME280;67223;51.102;5.882;2023-07-31T12:35:20;100708.88;;;19.74;100.00
78016;BME280;67223;51.102;5.882;2023-07-31T12:37:46;100698.69;;;19.76;100.00
78016;BME280;67223;51.102;5.882;2023-07-31T12:40:11;100685.78;;;20.29;100.00
78016;BME280;67223;51.102;5.882;2023-07-31T12:42:37;100670.69;;;20.05;100.00
78016;BME280;67223;51.102;5.882;2023-07-31T12:45:03;100660.50;;;20.43;100.00
78016;BME280;67223;51.102;5.882;2023-07-31T12:47:29;100644.81;;;20.39;100.00
78016;BME280;67223;51.102;5.882;2023-07-31T12:49:55;100635.72;;;20.10;100.00
78016;BME280;67223;51.102;5.882;2023-07-31T12:52:20;100635.50;;;20.69;100.00
78016;BME280;67223;51.102;5.882;2023-07-31T12:54:46;100628.88;;;20.99;100.00
78016;BME280;67223;51.102;5.882;2023-07-31T12:57:11;100623.09;;;21.09;100.00
78016;BME280;67223;51.102;5.882;2023-07-31T12:59:37;100624.50;;;21.26;100.00
78016;BME280;67223;51.102;5.882;2023-07-31T13:02:03;100614.19;;;21.15;100.00